»·PEaware :: N21100 49X-KBLH

N21100 :: 49X-KBLH

FLIGHT INFORMATION

Flight Status: Arrived
Operator: Privately registered:
United States
More flights under this callsign
Pilot: Luke W. (11553)
Aircraft: CESSNA 172 SKYHAWK
(C172)
More flights by this aircraft type
Origin: 49X Chemehuevi Valley
United States
Destination: KBLH Blythe
United States
More flights between these airports :: More routes between these airports
Route:
File this flight plan on PilotEdge
Remarks:
Altitude:
(Current/Filed)
4,500ft
Speed:
(Current/Filed)
100kts
Departed: 19-Oct-17 06:54 PM
Arrived: 19-Oct-17 07:49 PM
Distance/Time
Traveled:
57nm/0:55
Distance/Time
To Go:
Arrived

Flight Plot

Page will automatically refresh every two minutes.

Flight plan parsing failed; only flown route is shown


Map Options




Map Legend


Flown Route
Filed Route
Departure Airport
Arrival Airport
Navaid (VOR, NDB)
Fix

Horizontal Profiles

Position Reports

Time Latitude Longitude Heading Altitude Ground
Speed
19-Oct-17 18:40 34.529418 -114.430442 179 614ft 0kts
19-Oct-17 18:41 34.529418 -114.430442 179 614ft 0kts
19-Oct-17 18:42 34.529418 -114.430442 179 614ft 0kts
19-Oct-17 18:43 34.529418 -114.430442 179 614ft 0kts
19-Oct-17 18:44 34.529418 -114.430442 179 614ft 0kts
19-Oct-17 18:45 34.529418 -114.430442 179 614ft 0kts
19-Oct-17 18:46 34.529418 -114.430442 179 614ft 0kts
19-Oct-17 18:47 34.529418 -114.430442 179 614ft 0kts
19-Oct-17 18:48 34.529418 -114.430442 179 614ft 0kts
19-Oct-17 18:49 34.529418 -114.430442 179 614ft 0kts
19-Oct-17 18:50 34.529418 -114.430442 179 614ft 0kts
19-Oct-17 18:51 34.529418 -114.430442 179 614ft 0kts
19-Oct-17 18:52 34.529418 -114.430442 179 614ft 0kts
19-Oct-17 18:53 34.529418 -114.430442 179 614ft 0kts
19-Oct-17 18:54 34.529418 -114.430442 179 614ft 0kts
19-Oct-17 18:55 34.529418 -114.430442 179 614ft 0kts
19-Oct-17 18:56 34.529214 -114.430601 256 614ft 7kts
19-Oct-17 18:57 34.533084 -114.430981 1 614ft 17kts
19-Oct-17 18:58 34.535676 -114.431249 268 614ft 0kts
19-Oct-17 18:59 34.533733 -114.431981 179 615ft 54kts
19-Oct-17 19:00 34.516290 -114.432587 156 1317ft 69kts
19-Oct-17 19:01 34.501568 -114.417464 132 2225ft 72kts
19-Oct-17 19:02 34.488656 -114.400344 140 3139ft 69kts
19-Oct-17 19:03 34.475463 -114.386270 135 3964ft 68kts
19-Oct-17 19:04 34.460767 -114.367907 135 4495ft 94kts
19-Oct-17 19:05 34.441792 -114.343207 131 4490ft 102kts
19-Oct-17 19:06 34.423765 -114.317305 132 4490ft 101kts
19-Oct-17 19:07 34.405779 -114.291460 132 4490ft 102kts
19-Oct-17 19:08 34.387562 -114.265652 132 4507ft 99kts
19-Oct-17 19:09 34.369494 -114.240902 132 4509ft 99kts
19-Oct-17 19:10 34.351412 -114.216128 131 4509ft 99kts
19-Oct-17 19:11 34.333286 -114.191287 131 4509ft 99kts
19-Oct-17 19:12 34.311655 -114.171806 145 4509ft 99kts
19-Oct-17 19:13 34.288023 -114.158758 200 4505ft 104kts
19-Oct-17 19:14 34.267338 -114.183555 221 4508ft 107kts
19-Oct-17 19:15 34.247402 -114.208586 221 4508ft 107kts
19-Oct-17 19:16 34.226107 -114.231499 212 3964ft 103kts
19-Oct-17 19:17 34.202014 -114.249711 194 3322ft 101kts
19-Oct-17 19:18 34.176640 -114.255734 180 2765ft 98kts
19-Oct-17 19:19 34.152151 -114.263893 201 2452ft 94kts
19-Oct-17 19:20 34.145346 -114.288553 291 2373ft 104kts
19-Oct-17 19:21 34.144044 -114.307496 107 1801ft 87kts
19-Oct-17 19:22 34.154479 -114.287184 29 1373ft 80kts
19-Oct-17 19:23 34.171883 -114.278522 34 1167ft 68kts
19-Oct-17 19:24 34.167307 -114.260483 125 777ft 51kts
19-Oct-17 19:25 34.152919 -114.266061 200 485ft 64kts
19-Oct-17 19:26 34.134413 -114.276875 197 1220ft 86kts
19-Oct-17 19:27 34.115338 -114.292284 203 2151ft 84kts
19-Oct-17 19:28 34.098951 -114.310344 222 3115ft 80kts
19-Oct-17 19:29 34.085480 -114.329299 222 3980ft 79kts
19-Oct-17 19:30 34.069916 -114.350519 222 4511ft 104kts
19-Oct-17 19:31 34.050688 -114.375505 222 4505ft 106kts
19-Oct-17 19:32 34.030803 -114.401051 222 4503ft 105kts
19-Oct-17 19:33 34.011872 -114.425045 222 4500ft 104kts
19-Oct-17 19:34 33.992278 -114.449495 222 4498ft 103kts
19-Oct-17 19:35 33.972567 -114.473656 222 4496ft 102kts
19-Oct-17 19:36 33.950140 -114.492299 202 4493ft 101kts
19-Oct-17 19:37 33.923795 -114.502582 194 4490ft 101kts
19-Oct-17 19:38 33.897717 -114.510342 194 4490ft 101kts
19-Oct-17 19:39 33.873479 -114.517550 194 4491ft 102kts
19-Oct-17 19:40 33.846449 -114.525585 194 4491ft 102kts
19-Oct-17 19:41 33.819414 -114.533618 194 4490ft 102kts
19-Oct-17 19:42 33.792483 -114.541621 194 4491ft 103kts
19-Oct-17 19:43 33.765752 -114.549564 194 4490ft 103kts
19-Oct-17 19:44 33.738062 -114.557795 195 4490ft 103kts
19-Oct-17 19:45 33.715547 -114.577635 226 4398ft 102kts
19-Oct-17 19:46 33.699208 -114.604717 233 3903ft 93kts
19-Oct-17 19:47 33.682642 -114.628027 225 3306ft 93kts
19-Oct-17 19:48 33.665166 -114.649725 226 2709ft 97kts
19-Oct-17 19:49 33.650776 -114.670968 230 2012ft 91kts
19-Oct-17 19:50 33.644964 -114.685563 7 1431ft 106kts
19-Oct-17 19:51 33.661449 -114.697127 268 1206ft 96kts
19-Oct-17 19:52 33.652226 -114.716376 185 1068ft 67kts
19-Oct-17 19:53 33.636601 -114.716703 181 546ft 51kts
19-Oct-17 19:54 33.624317 -114.716795 180 394ft 26kts
19-Oct-17 19:55 33.617870 -114.716827 180 394ft 25kts
19-Oct-17 19:56 33.615125 -114.715895 89 394ft 0kts
19-Oct-17 19:57 33.614283 -114.714363 356 394ft 0kts
19-Oct-17 19:58 33.614283 -114.714363 356 394ft 0kts
19-Oct-17 19:59 33.614283 -114.714363 356 394ft 0kts
19-Oct-17 20:00 33.614283 -114.714363 356 394ft 0kts
19-Oct-17 20:01 33.614283 -114.714363 356 394ft 0kts
19-Oct-17 20:02 33.614283 -114.714363 356 394ft 0kts
19-Oct-17 20:03 33.614283 -114.714363 356 394ft 0kts
19-Oct-17 20:04 33.614283 -114.714363 356 394ft 0kts

Navigation Log

Ident Type
Flight plan parsing failed, navigation log unavailable